Time;durP1;ratioP1;P1;durP2;ratioP2;P2;SDS_P1;SDS_P2;PMS_P1;PMS_P2;Temp;Humidity;BMP_temperature;BMP_pressure;BME280_temperature;BME280_humidity;BME280_pressure;Samples;Min_cycle;Max_cycle;Signal;HPM_P1;HPM_P2
2023/01/31 00:00:37;;;;;;;15.10;9.40;;;;;20.20;101299.00;;;;2085069;28;20221;-53
2023/01/31 00:01:38;;;;;;;15.70;10.50;;;;;20.20;101298.00;;;;2086489;28;20224;-53
2023/01/31 00:02:39;;;;;;;16.90;9.85;;;;;20.20;101288.00;;;;2087389;28;20302;-52
2023/01/31 00:03:39;;;;;;;18.87;10.27;;;;;20.10;101293.00;;;;2087116;28;20306;-51
2023/01/31 00:04:39;;;;;;;13.47;8.50;;;;;20.20;101285.00;;;;2086974;28;20225;-50
2023/01/31 00:05:40;;;;;;;16.50;10.30;;;;;20.20;101285.00;;;;2086003;28;20232;-52
2023/01/31 00:06:42;;;;;;;15.57;9.43;;;;;20.20;101287.00;;;;2087345;28;20262;-51
2023/01/31 00:07:42;;;;;;;15.32;9.70;;;;;20.20;101287.00;;;;2086716;28;20227;-53
2023/01/31 00:08:43;;;;;;;14.13;9.23;;;;;20.20;101292.00;;;;2085635;28;20208;-50
2023/01/31 00:09:43;;;;;;;16.70;9.67;;;;;20.10;101291.00;;;;2087079;28;20228;-52
2023/01/31 00:10:43;;;;;;;14.87;9.80;;;;;20.10;101289.00;;;;2087371;28;20307;-53
2023/01/31 00:11:44;;;;;;;15.17;9.00;;;;;20.20;101288.00;;;;2087271;28;20225;-51
2023/01/31 00:12:44;;;;;;;13.37;8.90;;;;;20.00;101297.00;;;;2087665;28;20276;-52
2023/01/31 00:13:44;;;;;;;16.83;9.40;;;;;20.10;101288.00;;;;2087528;28;20218;-52
2023/01/31 00:14:45;;;;;;;12.00;8.27;;;;;20.10;101288.00;;;;2086645;28;20223;-51
2023/01/31 00:15:45;;;;;;;13.80;8.20;;;;;20.10;101287.00;;;;2086281;28;20588;-52
2023/01/31 00:16:45;;;;;;;12.00;7.33;;;;;20.10;101292.00;;;;2087088;28;20758;-55
2023/01/31 00:17:46;;;;;;;13.90;8.57;;;;;20.10;101288.00;;;;2086941;28;21058;-56
2023/01/31 00:18:46;;;;;;;14.93;8.00;;;;;20.10;101293.00;;;;2085991;28;20248;-55
2023/01/31 00:19:46;;;;;;;12.07;7.63;;;;;20.10;101288.00;;;;2087203;28;20816;-56
2023/01/31 00:20:47;;;;;;;13.07;8.30;;;;;20.10;101290.00;;;;2086630;28;20225;-51
2023/01/31 00:21:47;;;;;;;14.30;7.13;;;;;20.10;101293.00;;;;2087302;28;20594;-52
2023/01/31 00:22:47;;;;;;;10.40;7.40;;;;;20.10;101293.00;;;;2087451;28;20212;-52
2023/01/31 00:23:48;;;;;;;12.10;7.27;;;;;20.10;101296.00;;;;2087677;28;20216;-53
2023/01/31 00:24:48;;;;;;;12.80;7.30;;;;;20.10;101290.00;;;;2087565;28;20677;-53
2023/01/31 00:25:48;;;;;;;11.40;7.17;;;;;20.10;101302.00;;;;2087587;28;20221;-53
2023/01/31 00:26:55;;;;;;;11.73;6.77;;;;;20.00;101293.00;;;;2087936;28;20212;-53
2023/01/31 00:27:56;;;;;;;11.55;7.38;;;;;20.00;101295.00;;;;2087353;28;20216;-50
2023/01/31 00:28:58;;;;;;;12.05;7.90;;;;;20.00;101296.00;;;;2086946;28;20220;-52
2023/01/31 00:29:58;;;;;;;10.95;7.07;;;;;20.00;101290.00;;;;2087216;28;20582;-53
2023/01/31 00:30:59;;;;;;;12.57;6.97;;;;;20.00;101295.00;;;;2087278;28;20219;-53
2023/01/31 00:31:59;;;;;;;12.73;7.40;;;;;20.00;101292.00;;;;2087728;28;20213;-53
2023/01/31 00:32:59;;;;;;;12.00;6.83;;;;;20.00;101300.00;;;;2087791;28;20221;-53
2023/01/31 00:34:00;;;;;;;13.47;8.10;;;;;20.00;101295.00;;;;2087727;28;20215;-51
2023/01/31 00:35:00;;;;;;;10.33;6.63;;;;;20.00;101287.00;;;;2087465;28;20216;-51
2023/01/31 00:36:08;;;;;;;11.30;6.73;;;;;20.00;101288.00;;;;2087442;28;20254;-52
2023/01/31 00:37:08;;;;;;;11.90;7.32;;;;;20.00;101282.00;;;;2087579;28;20307;-52
2023/01/31 00:38:09;;;;;;;12.30;7.00;;;;;20.00;101283.00;;;;2086938;28;20263;-52
2023/01/31 00:39:09;;;;;;;11.17;7.03;;;;;20.00;101282.00;;;;2087847;28;20767;-54
2023/01/31 00:40:10;;;;;;;11.07;7.23;;;;;20.00;101297.00;;;;2087534;28;20558;-52
2023/01/31 00:41:10;;;;;;;11.33;6.47;;;;;20.00;101285.00;;;;2085615;28;20208;-51
2023/01/31 00:42:11;;;;;;;11.20;6.40;;;;;20.00;101293.00;;;;2087669;28;20509;-53
2023/01/31 00:43:11;;;;;;;12.23;6.20;;;;;19.90;101294.00;;;;2087731;28;20293;-53
2023/01/31 00:44:12;;;;;;;8.50;6.40;;;;;19.90;101282.00;;;;2087173;28;20235;-54
2023/01/31 00:45:12;;;;;;;11.80;6.35;;;;;19.90;101288.00;;;;2087185;28;20213;-51
2023/01/31 00:46:13;;;;;;;11.73;6.47;;;;;20.00;101284.00;;;;2087820;28;20213;-52
2023/01/31 00:47:13;;;;;;;10.57;6.03;;;;;19.90;101282.00;;;;2087368;28;20243;-52
2023/01/31 00:48:14;;;;;;;12.23;5.87;;;;;19.90;101284.00;;;;2086556;28;20267;-50
2023/01/31 00:49:14;;;;;;;10.90;6.40;;;;;19.90;101280.00;;;;2087673;28;20213;-51
2023/01/31 00:50:14;;;;;;;11.67;6.60;;;;;19.90;101279.00;;;;2087796;28;20294;-51
2023/01/31 00:51:15;;;;;;;10.97;6.30;;;;;19.90;101276.00;;;;2087909;28;20221;-51
2023/01/31 00:52:15;;;;;;;10.50;6.40;;;;;19.90;101277.00;;;;2087567;28;20309;-53
2023/01/31 00:53:17;;;;;;;11.40;6.10;;;;;19.90;101273.00;;;;2087378;28;20232;-51
2023/01/31 00:54:17;;;;;;;11.40;5.80;;;;;19.90;101266.00;;;;2087476;28;20205;-53
2023/01/31 00:55:18;;;;;;;9.80;5.70;;;;;19.90;101269.00;;;;2087280;28;20212;-52
2023/01/31 00:56:24;;;;;;;11.37;5.40;;;;;19.80;101268.00;;;;2086806;28;20539;-52
2023/01/31 00:57:24;;;;;;;9.90;5.68;;;;;19.90;101267.00;;;;2087289;28;20554;-50
2023/01/31 00:58:25;;;;;;;10.10;5.83;;;;;19.90;101273.00;;;;2086166;28;20220;-53
2023/01/31 00:59:25;;;;;;;11.10;6.20;;;;;19.90;101273.00;;;;2087570;28;20299;-51
2023/01/31 01:00:25;;;;;;;9.43;5.13;;;;;19.90;101275.00;;;;2087600;28;20216;-52
2023/01/31 01:01:27;;;;;;;10.73;5.30;;;;;19.90;101273.00;;;;2087376;28;20276;-52
2023/01/31 01:02:27;;;;;;;8.50;5.00;;;;;19.90;101287.00;;;;2086812;28;20779;-51
2023/01/31 01:03:27;;;;;;;9.73;5.37;;;;;19.90;101285.00;;;;2086521;28;20239;-51
2023/01/31 01:04:28;;;;;;;10.30;4.97;;;;;19.90;101286.00;;;;2087529;28;20213;-52
2023/01/31 01:05:28;;;;;;;8.87;4.67;;;;;19.80;101285.00;;;;2087529;28;20216;-53
2023/01/31 01:06:28;;;;;;;10.60;5.90;;;;;19.80;101288.00;;;;2087600;28;20213;-52
2023/01/31 01:07:29;;;;;;;10.67;6.13;;;;;19.80;101289.00;;;;2087738;28;20288;-53
2023/01/31 01:08:29;;;;;;;9.10;5.30;;;;;19.80;101283.00;;;;2086620;28;20221;-53
2023/01/31 01:09:30;;;;;;;13.90;6.20;;;;;19.80;101281.00;;;;2087404;28;20244;-50
2023/01/31 01:10:30;;;;;;;10.50;5.87;;;;;19.80;101289.00;;;;2086831;28;20917;-52
2023/01/31 01:11:31;;;;;;;11.40;5.20;;;;;19.80;101292.00;;;;2087434;28;20240;-52
2023/01/31 01:12:31;;;;;;;10.53;5.70;;;;;19.80;101289.00;;;;2087268;28;20235;-53
2023/01/31 01:13:32;;;;;;;10.03;5.17;;;;;19.80;101293.00;;;;2086467;28;20205;-51
2023/01/31 01:14:33;;;;;;;10.60;5.10;;;;;19.80;101289.00;;;;2087222;28;20243;-51
2023/01/31 01:15:36;;;;;;;10.55;4.78;;;;;19.80;101289.00;;;;2087317;28;20201;-53
2023/01/31 01:16:37;;;;;;;12.18;4.70;;;;;19.80;101284.00;;;;2087135;28;20305;-51
2023/01/31 01:17:38;;;;;;;11.40;4.70;;;;;19.80;101281.00;;;;2087455;28;20300;-54
2023/01/31 01:18:38;;;;;;;12.50;5.33;;;;;19.80;101293.00;;;;2086545;28;20251;-52
2023/01/31 01:19:38;;;;;;;13.67;5.83;;;;;19.80;101285.00;;;;2087470;28;20217;-53
2023/01/31 01:20:39;;;;;;;11.83;5.40;;;;;19.80;101290.00;;;;2087271;28;20205;-52
2023/01/31 01:21:39;;;;;;;11.20;4.83;;;;;19.80;101292.00;;;;2087476;28;20252;-52
2023/01/31 01:22:41;;;;;;;7.57;4.63;;;;;19.80;101291.00;;;;2087472;28;20874;-52
2023/01/31 01:23:42;;;;;;;10.45;5.10;;;;;19.80;101287.00;;;;2086416;28;20733;-53
2023/01/31 01:24:42;;;;;;;9.27;5.17;;;;;19.80;101293.00;;;;2078485;28;20224;-52
2023/01/31 01:25:43;;;;;;;10.30;4.90;;;;;19.80;101283.00;;;;2086136;28;20216;-52
2023/01/31 01:26:44;;;;;;;7.60;4.67;;;;;19.70;101282.00;;;;2087381;28;20236;-53
2023/01/31 01:27:44;;;;;;;8.38;4.43;;;;;19.70;101282.00;;;;2087325;28;20217;-50
2023/01/31 01:28:45;;;;;;;7.13;4.43;;;;;19.80;101288.00;;;;2086544;28;20803;-50
2023/01/31 01:29:45;;;;;;;10.73;5.03;;;;;19.70;101288.00;;;;2087196;28;20630;-52
2023/01/31 01:30:45;;;;;;;9.50;4.63;;;;;19.70;101280.00;;;;2087144;28;20213;-53
2023/01/31 01:31:46;;;;;;;9.07;4.77;;;;;19.70;101276.00;;;;2087301;28;20359;-52
2023/01/31 01:32:47;;;;;;;7.57;4.53;;;;;19.70;101273.00;;;;2087289;28;20216;-53
2023/01/31 01:33:48;;;;;;;10.48;5.18;;;;;19.70;101281.00;;;;2087418;28;20221;-52
2023/01/31 01:34:48;;;;;;;9.07;4.47;;;;;19.70;101272.00;;;;2087364;28;20270;-53
2023/01/31 01:35:48;;;;;;;8.03;4.50;;;;;19.70;101276.00;;;;2087198;28;20201;-53
2023/01/31 01:36:49;;;;;;;9.60;4.43;;;;;19.70;101275.00;;;;2086746;28;20599;-53
2023/01/31 01:37:49;;;;;;;7.87;4.40;;;;;19.70;101274.00;;;;2087345;28;20581;-50
2023/01/31 01:38:49;;;;;;;7.80;5.17;;;;;19.70;101273.00;;;;2086627;28;20533;-50
2023/01/31 01:39:51;;;;;;;10.17;4.90;;;;;19.60;101274.00;;;;2087205;28;20209;-52
2023/01/31 01:40:51;;;;;;;9.02;4.78;;;;;19.60;101269.00;;;;2087162;28;20221;-53
2023/01/31 01:41:51;;;;;;;6.87;3.90;;;;;19.70;101270.00;;;;2086953;28;20209;-49
2023/01/31 01:42:52;;;;;;;9.27;4.43;;;;;19.70;101281.00;;;;2087448;28;20205;-51
2023/01/31 01:43:53;;;;;;;10.53;4.70;;;;;19.60;101277.00;;;;2087415;28;20236;-52
2023/01/31 01:44:55;;;;;;;8.50;4.30;;;;;19.60;101277.00;;;;2087292;28;20959;-53
2023/01/31 01:45:55;;;;;;;8.88;4.82;;;;;19.70;101271.00;;;;2087063;28;20696;-52
2023/01/31 01:46:56;;;;;;;9.80;4.77;;;;;19.60;101261.00;;;;2078196;28;20255;-51
2023/01/31 01:47:58;;;;;;;6.70;4.07;;;;;19.60;101260.00;;;;2077647;28;20224;-50
2023/01/31 01:49:15;;;;;;;8.38;3.67;;;;;19.60;101258.00;;;;2078461;28;20832;-53
2023/01/31 01:50:24;;;;;;;8.90;4.70;;;;;19.70;101263.00;;;;2070006;28;20682;-51
2023/01/31 01:51:25;;;;;;;9.70;4.40;;;;;19.60;101265.00;;;;2081100;28;21065;-52
2023/01/31 01:52:25;;;;;;;7.10;4.10;;;;;19.60;101263.00;;;;2078295;28;20216;-53
2023/01/31 01:53:26;;;;;;;10.50;4.73;;;;;19.60;101267.00;;;;2084747;28;20217;-52
2023/01/31 01:54:33;;;;;;;7.30;4.10;;;;;19.60;101270.00;;;;2076887;28;20233;-52
2023/01/31 01:55:40;;;;;;;8.05;3.92;;;;;19.60;101275.00;;;;2063049;28;21042;-51
2023/01/31 01:56:42;;;;;;;5.93;3.33;;;;;19.60;101274.00;;;;2078513;28;20248;-52
2023/01/31 01:57:43;;;;;;;9.90;4.45;;;;;19.60;101271.00;;;;2076843;28;20226;-52
2023/01/31 01:59:14;;;;;;;7.20;3.90;;;;;19.60;101262.00;;;;2076824;28;20300;-51
2023/01/31 02:00:22;;;;;;;9.95;4.13;;;;;19.60;101264.00;;;;2084577;28;20456;-51
2023/01/31 02:01:24;;;;;;;9.23;4.32;;;;;19.60;101260.00;;;;2086699;28;20216;-53
2023/01/31 02:02:24;;;;;;;8.05;3.97;;;;;19.60;101274.00;;;;2085795;28;20216;-51
2023/01/31 02:03:25;;;;;;;8.97;4.37;;;;;19.60;101273.00;;;;2078255;28;20225;-51
2023/01/31 02:04:27;;;;;;;6.77;4.03;;;;;19.60;101266.00;;;;2085974;28;20291;-51
2023/01/31 02:05:30;;;;;;;8.45;4.03;;;;;19.60;101278.00;;;;2086218;28;20577;-53
2023/01/31 02:06:31;;;;;;;6.57;3.83;;;;;19.60;101274.00;;;;2078472;28;20225;-52
2023/01/31 02:07:31;;;;;;;7.33;4.00;;;;;19.60;101278.00;;;;2086557;28;20209;-51
2023/01/31 02:08:34;;;;;;;7.33;3.60;;;;;19.60;101278.00;;;;2086234;28;20221;-51
2023/01/31 02:09:46;;;;;;;8.48;4.35;;;;;19.50;101277.00;;;;2077624;28;20684;-51
2023/01/31 02:11:10;;;;;;;8.32;4.03;;;;;19.60;101284.00;;;;2079922;28;20240;-53
2023/01/31 02:12:10;;;;;;;10.50;4.25;;;;;19.60;101280.00;;;;2085651;28;20287;-54
2023/01/31 02:13:10;;;;;;;10.37;4.10;;;;;19.60;101282.00;;;;2080169;28;20622;-52
2023/01/31 02:14:11;;;;;;;8.43;3.20;;;;;19.50;101284.00;;;;2086340;28;20690;-52
2023/01/31 02:15:11;;;;;;;7.57;3.77;;;;;19.60;101287.00;;;;2086601;28;20602;-52
2023/01/31 02:16:12;;;;;;;6.80;3.50;;;;;19.60;101285.00;;;;2087036;28;20703;-52
2023/01/31 02:17:13;;;;;;;7.07;4.03;;;;;19.60;101292.00;;;;2087143;28;20205;-53
2023/01/31 02:18:14;;;;;;;7.57;3.72;;;;;19.60;101286.00;;;;2085991;28;21128;-50
2023/01/31 02:19:33;;;;;;;7.80;3.50;;;;;19.50;101295.00;;;;2086678;28;20217;-50
2023/01/31 02:20:47;;;;;;;7.15;3.85;;;;;19.50;101290.00;;;;2077830;28;20237;-52
2023/01/31 02:22:06;;;;;;;7.43;3.70;;;;;19.60;101290.00;;;;2080657;28;20247;-52
2023/01/31 02:23:34;;;;;;;6.47;3.40;;;;;19.50;101297.00;;;;2086288;28;20215;-52
2023/01/31 02:25:07;;;;;;;6.60;3.30;;;;;19.50;101299.00;;;;2086219;28;20224;-50
2023/01/31 02:26:25;;;;;;;7.75;4.05;;;;;19.50;101303.00;;;;2084591;28;20216;-52
2023/01/31 02:28:05;;;;;;;8.23;4.38;;;;;19.50;101290.00;;;;2086589;28;20931;-52
2023/01/31 02:29:18;;;;;;;7.38;3.63;;;;;19.50;101294.00;;;;2085740;28;20225;-52
2023/01/31 02:30:53;;;;;;;7.85;3.20;;;;;19.50;101304.00;;;;2082077;28;20209;-53
2023/01/31 02:32:26;;;;;;;8.32;3.65;;;;;19.50;101301.00;;;;2086227;28;20209;-52
2023/01/31 02:33:41;;;;;;;7.25;3.80;;;;;19.50;101299.00;;;;2085460;28;20243;-53
2023/01/31 02:34:50;;;;;;;6.72;2.83;;;;;19.50;101300.00;;;;2071201;28;20214;-53
2023/01/31 02:35:57;;;;;;;9.68;3.95;;;;;19.50;101297.00;;;;2079181;28;20717;-51
2023/01/31 02:37:05;;;;;;;8.77;3.58;;;;;19.50;101289.00;;;;2087026;28;20236;-53
2023/01/31 02:38:10;;;;;;;7.47;3.20;;;;;19.50;101267.00;;;;2085222;28;20300;-51
2023/01/31 02:39:38;;;;;;;7.88;3.30;;;;;19.50;101296.00;;;;2085973;28;20204;-51
2023/01/31 02:41:24;;;;;;;6.72;3.90;;;;;19.40;101305.00;;;;2086468;28;20220;-52
2023/01/31 02:42:51;;;;;;;6.35;3.28;;;;;19.50;101302.00;;;;2085249;28;20296;-52
2023/01/31 02:45:46;;;;;;;7.85;3.08;;;;;19.40;101302.00;;;;2082419;28;20288;-52
2023/01/31 02:47:27;;;;;;;9.63;3.30;;;;;19.50;101302.00;;;;2086410;28;20217;-53
2023/01/31 02:48:35;;;;;;;5.88;3.30;;;;;19.50;101291.00;;;;2084987;28;20330;-53
2023/01/31 02:50:01;;;;;;;7.57;2.75;;;;;19.50;101282.00;;;;2081463;28;20239;-52
2023/01/31 02:51:09;;;;;;;7.45;3.20;;;;;19.40;101293.00;;;;2080528;28;20232;-52
2023/01/31 02:52:32;;;;;;;7.28;3.30;;;;;19.40;101296.00;;;;2085852;28;20212;-52
2023/01/31 02:53:35;;;;;;;9.02;3.83;;;;;19.40;101289.00;;;;2086061;28;20213;-53
2023/01/31 02:56:13;;;;;;;5.65;3.33;;;;;19.30;101291.00;;;;2077880;28;20956;-52
2023/01/31 02:56:19;;;;;;;6.35;3.25;;;;;19.40;101289.00;;;;2077178;28;20653;-50
2023/01/31 02:57:19;;;;;;;7.68;3.08;;;;;19.40;101282.00;;;;2075303;28;20205;-53
2023/01/31 02:58:19;;;;;;;6.37;3.53;;;;;19.40;101288.00;;;;2069137;28;20263;-51
2023/01/31 02:59:24;;;;;;;6.27;3.17;;;;;19.40;101288.00;;;;2069700;28;20226;-49
2023/01/31 03:00:25;;;;;;;8.02;3.13;;;;;19.40;101291.00;;;;2061998;28;20214;-53
2023/01/31 03:01:30;;;;;;;8.43;3.07;;;;;19.40;101304.00;;;;2069843;28;20326;-51
2023/01/31 03:02:30;;;;;;;8.43;3.40;;;;;19.40;101288.00;;;;2069487;28;20631;-52
2023/01/31 03:03:32;;;;;;;7.50;3.60;;;;;19.40;101293.00;;;;2069779;28;20225;-53
2023/01/31 03:04:35;;;;;;;5.50;2.65;;;;;19.40;101298.00;;;;2069267;28;20249;-53
2023/01/31 03:05:35;;;;;;;5.70;3.20;;;;;19.40;101289.00;;;;2070069;28;20244;-52
2023/01/31 03:06:35;;;;;;;7.77;3.60;;;;;19.40;101290.00;;;;2078588;28;20245;-53
2023/01/31 03:07:36;;;;;;;5.43;2.93;;;;;19.40;101286.00;;;;2078398;28;20217;-53
2023/01/31 03:08:37;;;;;;;5.67;3.00;;;;;19.40;101294.00;;;;2077548;28;20210;-52
2023/01/31 03:09:52;;;;;;;7.23;3.00;;;;;19.40;101285.00;;;;2077151;28;20519;-50
2023/01/31 03:11:00;;;;;;;6.93;3.47;;;;;19.40;101282.00;;;;2071090;28;21008;-53
2023/01/31 03:12:22;;;;;;;8.02;3.45;;;;;19.40;101284.00;;;;2072093;28;20630;-53
2023/01/31 03:13:34;;;;;;;7.38;3.22;;;;;19.40;101282.00;;;;2077782;28;20214;-51
2023/01/31 03:14:43;;;;;;;5.63;2.75;;;;;19.30;101283.00;;;;2078026;28;20263;-52
2023/01/31 03:17:33;;;;;;;8.60;3.63;;;;;19.40;101282.00;;;;2074416;28;20230;-52
2023/01/31 03:19:01;;;;;;;7.90;3.55;;;;;19.40;101270.00;;;;2070368;28;20222;-54
2023/01/31 03:20:07;;;;;;;5.70;3.08;;;;;19.30;101259.00;;;;2077074;28;20844;-53
2023/01/31 03:21:16;;;;;;;6.90;3.42;;;;;19.30;101268.00;;;;2078059;28;20293;-51
2023/01/31 03:22:24;;;;;;;6.57;2.80;;;;;19.30;101265.00;;;;2069024;28;20210;-53
2023/01/31 03:23:28;;;;;;;8.85;3.70;;;;;19.30;101268.00;;;;2073605;28;20216;-53
2023/01/31 03:24:29;;;;;;;7.50;3.55;;;;;19.30;101263.00;;;;2069448;28;20248;-53
2023/01/31 03:25:31;;;;;;;6.97;3.20;;;;;19.40;101262.00;;;;2073140;28;20217;-50
2023/01/31 03:26:31;;;;;;;8.18;3.70;;;;;19.30;101262.00;;;;2069335;28;20218;-50
2023/01/31 03:27:32;;;;;;;7.70;3.20;;;;;19.30;101262.00;;;;2061533;28;20219;-52
2023/01/31 03:28:35;;;;;;;6.73;3.30;;;;;19.30;101258.00;;;;2052624;28;20215;-54
2023/01/31 03:29:37;;;;;;;12.00;3.72;;;;;19.40;101251.00;;;;2061673;28;20278;-52
2023/01/31 03:30:47;;;;;;;9.95;3.03;;;;;19.30;101252.00;;;;2077492;28;20222;-53
2023/01/31 03:31:52;;;;;;;5.40;3.15;;;;;19.30;101252.00;;;;2075678;28;20225;-51
2023/01/31 03:32:55;;;;;;;8.25;3.10;;;;;19.30;101240.00;;;;2081663;28;20280;-52
2023/01/31 03:33:57;;;;;;;7.20;3.00;;;;;19.30;101245.00;;;;2077557;28;20210;-51
2023/01/31 03:34:57;;;;;;;6.60;2.45;;;;;19.30;101243.00;;;;2077685;28;20292;-53
2023/01/31 03:36:09;;;;;;;6.17;3.20;;;;;19.30;101249.00;;;;2081645;28;20750;-52
2023/01/31 03:37:24;;;;;;;7.43;2.97;;;;;19.30;101255.00;;;;2071179;28;20221;-53
2023/01/31 03:38:25;;;;;;;8.77;3.50;;;;;19.30;101248.00;;;;2070018;28;20233;-49
2023/01/31 03:39:43;;;;;;;6.05;2.63;;;;;19.30;101247.00;;;;2067372;28;20213;-51
2023/01/31 03:40:50;;;;;;;7.40;3.30;;;;;19.30;101251.00;;;;2073586;28;20230;-50
2023/01/31 03:42:06;;;;;;;5.32;2.70;;;;;19.30;101241.00;;;;2081213;28;20226;-52
2023/01/31 03:43:18;;;;;;;6.93;3.10;;;;;19.30;101236.00;;;;2062928;28;20734;-51
2023/01/31 03:44:32;;;;;;;8.63;3.30;;;;;19.30;101229.00;;;;2060014;28;20222;-53
2023/01/31 03:45:34;;;;;;;6.90;3.50;;;;;19.30;101218.00;;;;2057439;28;20214;-50
2023/01/31 03:46:37;;;;;;;9.43;4.63;;;;;19.30;101231.00;;;;2055785;28;20208;-50
2023/01/31 03:47:42;;;;;;;7.03;3.45;;;;;19.30;101228.00;;;;2071303;28;20306;-52
2023/01/31 03:48:43;;;;;;;5.50;2.83;;;;;19.30;101227.00;;;;2072111;28;20693;-53
2023/01/31 03:49:44;;;;;;;8.52;3.45;;;;;19.30;101226.00;;;;2078813;28;20221;-52
2023/01/31 03:50:57;;;;;;;9.45;3.22;;;;;19.30;101221.00;;;;2078984;28;20221;-51
2023/01/31 03:52:03;;;;;;;6.47;2.67;;;;;19.30;101228.00;;;;2074942;28;20300;-52
2023/01/31 03:53:08;;;;;;;7.50;3.58;;;;;19.30;101225.00;;;;2078940;28;20224;-52
2023/01/31 03:54:12;;;;;;;5.90;3.15;;;;;19.30;101224.00;;;;2078238;28;20229;-50
2023/01/31 03:55:22;;;;;;;8.13;2.75;;;;;19.30;101218.00;;;;2078973;28;20213;-54
2023/01/31 03:56:24;;;;;;;5.93;2.88;;;;;19.20;101223.00;;;;2081047;28;20197;-53
2023/01/31 03:57:29;;;;;;;6.20;3.00;;;;;19.30;101220.00;;;;2071262;28;20335;-53
2023/01/31 03:58:31;;;;;;;6.32;2.55;;;;;19.20;101228.00;;;;2061574;28;20914;-51
2023/01/31 03:59:36;;;;;;;8.15;2.83;;;;;19.30;101222.00;;;;2066872;28;20218;-53
2023/01/31 04:00:36;;;;;;;7.03;2.90;;;;;19.30;101212.00;;;;2070907;28;20214;-53
2023/01/31 04:01:39;;;;;;;5.50;2.50;;;;;19.20;101210.00;;;;2062899;28;20745;-53
2023/01/31 04:02:40;;;;;;;7.15;3.20;;;;;19.20;101207.00;;;;2062952;28;20211;-51
2023/01/31 04:03:42;;;;;;;7.83;3.30;;;;;19.20;101198.00;;;;2070720;28;20218;-53
2023/01/31 04:04:48;;;;;;;8.65;3.15;;;;;19.20;101198.00;;;;2078840;28;20452;-53
2023/01/31 04:05:48;;;;;;;7.40;3.28;;;;;19.20;101201.00;;;;2079074;28;20586;-52
2023/01/31 04:06:48;;;;;;;7.13;2.73;;;;;19.20;101204.00;;;;2078597;28;20233;-53
2023/01/31 04:07:48;;;;;;;6.83;2.80;;;;;19.20;101192.00;;;;2079205;28;20268;-53
2023/01/31 04:08:49;;;;;;;6.30;3.13;;;;;19.20;101203.00;;;;2078228;28;20240;-54
2023/01/31 04:09:49;;;;;;;7.93;2.90;;;;;19.20;101202.00;;;;2078717;28;20803;-53
2023/01/31 04:10:49;;;;;;;5.90;2.90;;;;;19.20;101165.00;;;;2071188;28;20678;-54
2023/01/31 04:11:50;;;;;;;5.90;2.53;;;;;19.20;101186.00;;;;2071598;28;20560;-51
2023/01/31 04:12:50;;;;;;;6.70;2.90;;;;;19.20;101201.00;;;;2079001;28;20588;-53
2023/01/31 04:13:51;;;;;;;4.93;2.80;;;;;19.20;101198.00;;;;2078942;28;20300;-53
2023/01/31 04:14:51;;;;;;;6.60;2.67;;;;;19.20;101202.00;;;;2077559;28;21562;-53
2023/01/31 04:15:51;;;;;;;6.60;2.90;;;;;19.20;101205.00;;;;2086340;28;21933;-59
2023/01/31 04:16:52;;;;;;;6.70;2.80;;;;;19.00;101206.00;;;;2088023;28;20205;-56
2023/01/31 04:17:52;;;;;;;6.57;2.70;;;;;19.20;101197.00;;;;2086732;28;20243;-51
2023/01/31 04:18:52;;;;;;;6.37;2.43;;;;;19.20;101208.00;;;;2086207;28;20209;-51
2023/01/31 04:19:53;;;;;;;5.90;3.20;;;;;19.20;101207.00;;;;2087728;28;20255;-54
2023/01/31 04:20:53;;;;;;;6.50;3.10;;;;;19.20;101207.00;;;;2087579;28;20205;-51
2023/01/31 04:21:53;;;;;;;6.63;3.10;;;;;19.20;101204.00;;;;2087570;28;20216;-51
2023/01/31 04:22:54;;;;;;;5.90;2.63;;;;;19.20;101206.00;;;;2087993;28;20221;-50
2023/01/31 04:23:54;;;;;;;7.10;2.90;;;;;19.20;101208.00;;;;2087762;28;20212;-53
2023/01/31 04:24:54;;;;;;;6.03;2.70;;;;;19.10;101203.00;;;;2078289;28;20236;-52
2023/01/31 04:25:55;;;;;;;5.37;2.90;;;;;19.20;101200.00;;;;2078218;28;20225;-52
2023/01/31 04:26:55;;;;;;;6.70;2.60;;;;;19.20;101212.00;;;;2087449;28;20224;-53
2023/01/31 04:27:55;;;;;;;6.70;3.53;;;;;19.20;101211.00;;;;2087431;28;20223;-51
2023/01/31 04:28:56;;;;;;;7.10;3.40;;;;;19.10;101207.00;;;;2086703;28;20209;-53
2023/01/31 04:29:56;;;;;;;5.87;3.00;;;;;19.10;101210.00;;;;2087306;28;20233;-54
2023/01/31 04:30:56;;;;;;;7.37;3.50;;;;;19.10;101201.00;;;;2087095;28;20696;-53
2023/01/31 04:31:57;;;;;;;6.50;2.77;;;;;19.10;101206.00;;;;2087137;28;20699;-53
2023/01/31 04:32:57;;;;;;;6.60;2.73;;;;;19.10;101219.00;;;;2087004;28;20739;-53
2023/01/31 04:33:58;;;;;;;6.80;3.17;;;;;19.10;101202.00;;;;2086733;28;20673;-52
2023/01/31 04:34:59;;;;;;;7.22;2.95;;;;;19.10;101202.00;;;;2087205;28;20669;-53
2023/01/31 04:35:59;;;;;;;8.83;3.73;;;;;19.10;101213.00;;;;2087260;28;20219;-52
2023/01/31 04:37:00;;;;;;;7.40;3.30;;;;;19.10;101205.00;;;;2086661;28;20213;-52
2023/01/31 04:38:00;;;;;;;9.47;3.67;;;;;19.10;101220.00;;;;2086193;28;20852;-53
2023/01/31 04:39:00;;;;;;;8.77;3.60;;;;;19.10;101214.00;;;;2086559;28;20213;-54
2023/01/31 04:40:01;;;;;;;7.50;2.70;;;;;19.10;101215.00;;;;2086687;28;20224;-53
2023/01/31 04:41:01;;;;;;;6.80;2.87;;;;;19.10;101219.00;;;;2087382;28;20291;-54
2023/01/31 04:42:01;;;;;;;6.80;3.13;;;;;19.20;101211.00;;;;2087074;28;20201;-51
2023/01/31 04:43:02;;;;;;;6.50;3.10;;;;;19.10;101203.00;;;;2087134;28;20209;-52
2023/01/31 04:44:02;;;;;;;7.50;3.20;;;;;19.10;101206.00;;;;2087126;28;20216;-53
2023/01/31 04:45:03;;;;;;;8.30;3.50;;;;;19.10;101215.00;;;;2086864;28;20297;-54
2023/01/31 04:46:03;;;;;;;7.33;3.13;;;;;19.10;101205.00;;;;2087028;28;20254;-53
2023/01/31 04:47:03;;;;;;;5.97;3.07;;;;;19.20;101208.00;;;;2087069;28;20209;-51
2023/01/31 04:48:04;;;;;;;8.27;3.50;;;;;19.20;101206.00;;;;2085669;28;20209;-50
2023/01/31 04:49:05;;;;;;;6.17;3.43;;;;;19.10;101216.00;;;;2087014;28;20213;-51
2023/01/31 04:50:05;;;;;;;7.50;3.10;;;;;19.10;101203.00;;;;2086701;28;20216;-53
2023/01/31 04:51:06;;;;;;;5.03;2.80;;;;;19.10;101201.00;;;;2086691;28;20241;-53
2023/01/31 04:52:06;;;;;;;8.83;3.07;;;;;19.10;101202.00;;;;2087055;28;20219;-52
2023/01/31 04:53:07;;;;;;;5.17;2.90;;;;;19.10;101204.00;;;;2087301;28;20209;-51
2023/01/31 04:54:08;;;;;;;6.20;2.93;;;;;19.10;101196.00;;;;2087185;28;20217;-53
2023/01/31 04:55:08;;;;;;;5.03;2.90;;;;;19.10;101202.00;;;;2087229;28;20455;-53
2023/01/31 04:56:09;;;;;;;5.97;2.90;;;;;19.10;101198.00;;;;2087455;28;20211;-52
2023/01/31 04:57:09;;;;;;;8.90;3.70;;;;;19.10;101189.00;;;;2087401;28;20267;-53
2023/01/31 04:58:09;;;;;;;8.87;3.50;;;;;19.10;101188.00;;;;2086281;28;20209;-53
2023/01/31 04:59:10;;;;;;;6.30;3.40;;;;;19.10;101196.00;;;;2087317;28;20211;-52
2023/01/31 05:00:11;;;;;;;9.67;3.90;;;;;19.10;101187.00;;;;2087153;28;20209;-53
2023/01/31 05:01:11;;;;;;;8.13;3.80;;;;;19.10;101196.00;;;;2087299;28;20201;-53
2023/01/31 05:02:13;;;;;;;6.70;3.20;;;;;19.10;101193.00;;;;2087513;28;20448;-54
2023/01/31 05:03:14;;;;;;;6.40;2.90;;;;;19.10;101190.00;;;;2087493;28;20209;-50
2023/01/31 05:04:14;;;;;;;7.40;4.00;;;;;19.00;101185.00;;;;2087340;28;20739;-50
2023/01/31 05:05:14;;;;;;;6.20;3.43;;;;;19.10;101187.00;;;;2087500;28;20216;-50
2023/01/31 05:06:15;;;;;;;8.70;3.33;;;;;19.10;101184.00;;;;2087542;28;20217;-50
2023/01/31 05:07:15;;;;;;;7.67;3.30;;;;;19.10;101183.00;;;;2087069;28;20212;-52
2023/01/31 05:08:16;;;;;;;8.03;3.63;;;;;19.10;101188.00;;;;2086588;28;20205;-50
2023/01/31 05:09:16;;;;;;;6.03;3.57;;;;;19.10;101186.00;;;;2086692;28;20298;-52
2023/01/31 05:10:17;;;;;;;8.70;3.67;;;;;19.10;101178.00;;;;2086419;28;20875;-53
2023/01/31 05:11:17;;;;;;;9.43;3.23;;;;;19.00;101182.00;;;;2087598;28;20221;-52
2023/01/31 05:12:17;;;;;;;5.93;3.50;;;;;19.00;101175.00;;;;2087785;28;20302;-52
2023/01/31 05:13:18;;;;;;;6.97;3.30;;;;;19.00;101175.00;;;;2087664;28;20627;-53
2023/01/31 05:14:19;;;;;;;8.43;3.43;;;;;19.00;101167.00;;;;2085333;28;20607;-53
2023/01/31 05:15:21;;;;;;;5.93;3.47;;;;;19.00;101173.00;;;;2087140;28;20209;-51
2023/01/31 05:16:21;;;;;;;9.88;3.72;;;;;19.00;101168.00;;;;2087643;28;20299;-51
2023/01/31 05:17:28;;;;;;;8.20;3.40;;;;;19.00;101168.00;;;;2086938;28;20212;-52
2023/01/31 05:18:28;;;;;;;6.32;3.50;;;;;19.00;101164.00;;;;2085828;28;20224;-53